Time;durP1;ratioP1;P1;durP2;ratioP2;P2;SDS_P1;SDS_P2;PMS_P1;PMS_P2;Temp;Humidity;BMP_temperature;BMP_pressure;BME280_temperature;BME280_humidity;BME280_pressure;Samples;Min_cycle;Max_cycle;Signal;HPM_P1;HPM_P2
2022/03/19 00:00:07;;;;;;;10.27;4.23;;;6.10;99.90;;;;;;4917632;29;20247;-60
2022/03/19 00:02:44;;;;;;;8.50;4.30;;;5.90;99.90;;;;;;4918242;29;20240;-60
2022/03/19 00:05:12;;;;;;;11.67;4.57;;;5.80;99.90;;;;;;4936619;29;20267;-60
2022/03/19 00:07:41;;;;;;;12.70;5.43;;;5.90;99.90;;;;;;4932898;29;20242;-60
2022/03/19 00:10:10;;;;;;;11.83;4.93;;;5.90;99.90;;;;;;4936325;29;20239;-60
2022/03/19 00:12:39;;;;;;;7.83;4.40;;;6.00;99.90;;;;;;4936202;29;20291;-60
2022/03/19 00:15:09;;;;;;;14.73;4.77;;;5.90;99.90;;;;;;4933151;29;20244;-60
2022/03/19 00:17:37;;;;;;;10.17;4.70;;;6.00;99.90;;;;;;4917069;29;20247;-60
2022/03/19 00:20:08;;;;;;;9.33;4.60;;;6.10;99.90;;;;;;4907402;29;20372;-60
2022/03/19 00:22:37;;;;;;;10.80;5.00;;;6.20;99.90;;;;;;4925717;29;20651;-60
2022/03/19 00:25:08;;;;;;;11.20;4.70;;;6.10;99.90;;;;;;4898469;29;20249;-60
2022/03/19 00:27:36;;;;;;;10.03;4.90;;;6.00;99.90;;;;;;4901291;29;20268;-60
2022/03/19 00:30:05;;;;;;;11.80;5.70;;;6.00;99.90;;;;;;4898249;29;20489;-60
2022/03/19 00:32:34;;;;;;;10.23;5.20;;;6.00;99.90;;;;;;4898005;29;20293;-60
2022/03/19 00:35:02;;;;;;;12.53;5.87;;;6.00;99.90;;;;;;4916963;29;20251;-60
2022/03/19 00:37:32;;;;;;;10.87;5.50;;;5.90;99.90;;;;;;4916860;29;20326;-61
2022/03/19 00:40:00;;;;;;;14.63;5.83;;;5.80;99.90;;;;;;4935479;29;20299;-60
2022/03/19 00:42:31;;;;;;;12.07;5.83;;;5.70;99.90;;;;;;4935633;29;20236;-60
2022/03/19 00:44:59;;;;;;;10.37;5.00;;;5.70;99.90;;;;;;4935667;29;20247;-60
2022/03/19 00:47:27;;;;;;;8.33;5.03;;;5.80;99.90;;;;;;4933601;29;20851;-60
2022/03/19 00:49:55;;;;;;;14.27;5.53;;;5.70;99.90;;;;;;4916590;29;20334;-60
2022/03/19 00:52:23;;;;;;;15.60;6.97;;;5.60;99.90;;;;;;4916676;29;20475;-60
2022/03/19 00:54:53;;;;;;;10.80;5.30;;;5.50;99.90;;;;;;4916537;29;20245;-60
2022/03/19 00:57:23;;;;;;;15.30;6.40;;;5.50;99.90;;;;;;4916683;29;20240;-60
2022/03/19 00:59:51;;;;;;;12.70;6.63;;;5.40;99.90;;;;;;4916069;29;20659;-60
2022/03/19 01:02:19;;;;;;;15.33;7.83;;;5.40;99.90;;;;;;4916518;29;20531;-60
2022/03/19 01:04:48;;;;;;;17.07;6.77;;;5.50;99.90;;;;;;4916238;29;20241;-60
2022/03/19 01:07:16;;;;;;;15.43;6.90;;;5.40;99.90;;;;;;4916376;29;20641;-60
2022/03/19 01:09:44;;;;;;;10.70;6.03;;;5.40;99.90;;;;;;4932942;29;20234;-60
2022/03/19 01:12:13;;;;;;;10.43;5.93;;;5.30;99.90;;;;;;4935353;29;20504;-60
2022/03/19 01:14:41;;;;;;;15.00;6.60;;;5.40;99.90;;;;;;4918970;29;20237;-60
2022/03/19 01:17:09;;;;;;;15.27;7.27;;;5.40;99.90;;;;;;4916133;29;20633;-60
2022/03/19 01:19:58;;;;;;;14.90;7.00;;;5.30;99.90;;;;;;4923785;29;20239;-60
2022/03/19 01:22:26;;;;;;;14.33;7.23;;;5.30;99.90;;;;;;4923189;29;20480;-59
2022/03/19 01:24:54;;;;;;;13.50;5.80;;;5.30;99.90;;;;;;4935087;29;20266;-60
2022/03/19 01:27:23;;;;;;;11.73;6.80;;;5.30;99.90;;;;;;4933711;29;20247;-60
2022/03/19 01:29:52;;;;;;;11.17;6.30;;;5.40;99.90;;;;;;4916843;29;20329;-60
2022/03/19 01:32:20;;;;;;;13.07;7.20;;;5.40;99.90;;;;;;4916080;29;21000;-60
2022/03/19 01:34:48;;;;;;;14.50;7.60;;;5.30;99.90;;;;;;4915729;29;20260;-60
2022/03/19 01:37:16;;;;;;;17.93;7.43;;;5.10;99.90;;;;;;4915892;29;20240;-60
2022/03/19 01:39:44;;;;;;;12.23;6.43;;;5.10;99.90;;;;;;4932492;29;20594;-60
2022/03/19 01:42:12;;;;;;;14.50;7.93;;;5.10;99.90;;;;;;4935151;29;20467;-60
2022/03/19 01:44:42;;;;;;;14.57;7.00;;;5.20;99.90;;;;;;4917479;29;20475;-60
2022/03/19 01:47:10;;;;;;;13.13;6.80;;;5.10;99.90;;;;;;4934777;29;20321;-60
2022/03/19 01:49:38;;;;;;;13.90;6.77;;;5.00;99.90;;;;;;4923231;29;20461;-60
2022/03/19 01:52:07;;;;;;;14.20;7.07;;;5.10;99.90;;;;;;4915758;29;20528;-60
2022/03/19 01:54:37;;;;;;;13.07;6.20;;;5.00;99.90;;;;;;4930664;29;20243;-60
2022/03/19 01:57:07;;;;;;;14.67;6.93;;;4.90;99.90;;;;;;4934665;29;21324;-60
2022/03/19 01:59:37;;;;;;;12.77;6.50;;;4.90;99.90;;;;;;4917362;29;20247;-60
2022/03/19 02:02:08;;;;;;;13.00;6.17;;;4.80;99.90;;;;;;4934150;29;20490;-60
2022/03/19 02:04:37;;;;;;;12.47;6.20;;;4.70;99.90;;;;;;4918569;29;20721;-60
2022/03/19 02:07:07;;;;;;;13.50;6.23;;;4.70;99.90;;;;;;4915203;29;20490;-60
2022/03/19 02:09:35;;;;;;;13.20;6.17;;;4.60;99.90;;;;;;4930162;29;20862;-60
2022/03/19 02:12:06;;;;;;;8.90;6.10;;;4.50;99.90;;;;;;4933510;29;20488;-60
2022/03/19 02:14:35;;;;;;;13.00;5.23;;;4.70;99.90;;;;;;4933830;29;20483;-60
2022/03/19 02:17:04;;;;;;;11.60;6.47;;;4.70;99.90;;;;;;4934191;29;20247;-60
2022/03/19 02:19:35;;;;;;;10.50;6.07;;;4.80;99.90;;;;;;4918592;29;20476;-60
2022/03/19 02:22:03;;;;;;;12.70;6.47;;;4.80;99.90;;;;;;4919088;29;20334;-60
2022/03/19 02:27:18;;;;;;;10.00;5.60;;;4.60;99.90;;;;;;4932985;29;20539;-60
2022/03/19 02:29:46;;;;;;;12.93;6.30;;;4.50;99.90;;;;;;4931675;29;20235;-60
2022/03/19 02:32:14;;;;;;;14.83;7.43;;;4.70;99.90;;;;;;4934290;29;20497;-60
2022/03/19 02:34:42;;;;;;;15.00;6.83;;;4.80;99.90;;;;;;4933818;29;20483;-60
2022/03/19 02:37:12;;;;;;;16.10;7.13;;;4.60;99.90;;;;;;4934040;29;20899;-60
2022/03/19 02:39:41;;;;;;;14.67;6.70;;;4.50;99.90;;;;;;4921191;29;20473;-60
2022/03/19 02:42:09;;;;;;;13.90;6.43;;;4.40;99.90;;;;;;4914845;29;20559;-60
2022/03/19 02:44:38;;;;;;;11.87;6.57;;;4.30;99.90;;;;;;4914546;29;20465;-60
2022/03/19 02:47:08;;;;;;;10.43;6.27;;;4.30;99.90;;;;;;4914397;29;21041;-60
2022/03/19 02:49:36;;;;;;;13.13;6.10;;;4.40;99.90;;;;;;4929908;29;20563;-60
2022/03/19 02:52:05;;;;;;;12.73;5.97;;;4.40;99.90;;;;;;4933538;29;20519;-60
2022/03/19 02:54:33;;;;;;;13.50;5.97;;;4.40;99.90;;;;;;4917979;29;20490;-60
2022/03/19 02:57:03;;;;;;;8.70;5.33;;;4.40;99.90;;;;;;4914559;29;20894;-60
2022/03/19 02:59:34;;;;;;;10.50;5.17;;;4.30;99.90;;;;;;4914216;29;21050;-60
2022/03/19 03:02:03;;;;;;;11.40;5.10;;;4.30;99.90;;;;;;4914463;29;20483;-60
2022/03/19 03:04:32;;;;;;;10.37;5.03;;;4.40;99.90;;;;;;4929030;29;20486;-60
2022/03/19 03:07:03;;;;;;;11.20;4.50;;;4.30;99.90;;;;;;4933283;29;20518;-60
2022/03/19 03:09:32;;;;;;;11.33;4.80;;;4.40;99.90;;;;;;4921005;29;20491;-60
2022/03/19 03:12:02;;;;;;;9.73;4.47;;;4.40;99.90;;;;;;4914444;29;20250;-60
2022/03/19 03:14:31;;;;;;;11.83;4.70;;;4.40;99.90;;;;;;4914019;29;20566;-61
2022/03/19 03:17:01;;;;;;;15.00;4.20;;;4.30;99.90;;;;;;4914354;29;20479;-60
2022/03/19 03:19:36;;;;;;;13.30;4.80;;;4.30;99.90;;;;;;4929268;29;20475;-60
2022/03/19 03:22:05;;;;;;;8.13;4.10;;;4.30;99.90;;;;;;4928678;29;20520;-60
2022/03/19 03:24:34;;;;;;;13.10;5.03;;;4.30;99.90;;;;;;4914102;29;20491;-60
2022/03/19 03:27:02;;;;;;;11.13;4.23;;;4.50;99.90;;;;;;4914193;29;20487;-60
2022/03/19 03:29:31;;;;;;;11.20;4.00;;;4.40;99.90;;;;;;4915953;29;20540;-60
2022/03/19 03:31:59;;;;;;;12.23;4.03;;;4.40;99.90;;;;;;4914248;29;20545;-60
2022/03/19 03:34:28;;;;;;;10.40;4.27;;;4.30;99.90;;;;;;4913858;29;20479;-60
2022/03/19 03:36:56;;;;;;;13.90;3.97;;;4.30;99.90;;;;;;4914015;29;20550;-60
2022/03/19 03:39:24;;;;;;;8.70;3.83;;;4.40;99.90;;;;;;4913826;29;20476;-60
2022/03/19 03:41:53;;;;;;;11.67;4.33;;;4.40;99.90;;;;;;4914237;29;20491;-60
2022/03/19 03:44:21;;;;;;;9.70;3.63;;;4.30;99.90;;;;;;4913957;29;20478;-60
2022/03/19 03:46:50;;;;;;;11.80;4.10;;;4.30;99.90;;;;;;4913948;29;20552;-60
2022/03/19 03:49:19;;;;;;;10.67;4.00;;;4.30;99.90;;;;;;4927135;29;20856;-60
2022/03/19 03:51:47;;;;;;;8.37;3.90;;;4.20;99.90;;;;;;4932652;29;20487;-60
2022/03/19 03:54:15;;;;;;;9.17;3.93;;;4.30;99.90;;;;;;4933280;29;20476;-60
2022/03/19 03:56:43;;;;;;;8.97;3.67;;;4.30;99.90;;;;;;4932855;29;20472;-60
2022/03/19 03:59:12;;;;;;;7.93;3.40;;;4.20;99.90;;;;;;4932886;29;20551;-60
2022/03/19 04:01:40;;;;;;;7.70;2.93;;;4.30;99.90;;;;;;4932745;29;20462;-60
2022/03/19 04:04:09;;;;;;;9.53;3.30;;;4.30;99.90;;;;;;4932749;29;20479;-60
2022/03/19 04:06:37;;;;;;;9.83;3.63;;;4.40;99.90;;;;;;4932629;29;20479;-60
2022/03/19 04:09:05;;;;;;;7.77;3.40;;;4.50;99.90;;;;;;4925712;29;20508;-60
2022/03/19 04:11:33;;;;;;;9.23;3.47;;;4.50;99.90;;;;;;4913459;29;20465;-60
2022/03/19 04:14:02;;;;;;;15.83;4.67;;;4.40;99.90;;;;;;4924645;29;20552;-60
2022/03/19 04:16:31;;;;;;;8.97;3.30;;;4.30;99.90;;;;;;4918656;29;20479;-60
2022/03/19 04:18:59;;;;;;;14.47;3.60;;;4.40;99.90;;;;;;4924312;29;20484;-60
2022/03/19 04:21:28;;;;;;;9.70;3.53;;;4.30;99.90;;;;;;4932497;29;20924;-60
2022/03/19 04:23:56;;;;;;;13.23;3.70;;;4.20;99.90;;;;;;4915296;29;20562;-60
2022/03/19 04:26:24;;;;;;;10.00;3.00;;;4.20;99.90;;;;;;4932650;29;20606;-60
2022/03/19 04:28:52;;;;;;;9.03;3.50;;;4.20;99.90;;;;;;4929204;29;20497;-60
2022/03/19 04:31:21;;;;;;;10.43;3.43;;;4.30;99.90;;;;;;4932451;29;20506;-60
2022/03/19 04:33:49;;;;;;;13.13;4.07;;;4.30;99.90;;;;;;4923417;29;20485;-60
2022/03/19 04:36:32;;;;;;;16.40;4.23;;;4.10;99.90;;;;;;4916914;29;21002;-60
2022/03/19 04:39:03;;;;;;;10.83;3.80;;;3.90;99.90;;;;;;4916621;29;20528;-60
2022/03/19 04:41:33;;;;;;;9.20;4.00;;;3.90;99.90;;;;;;4916825;29;20508;-60
2022/03/19 04:44:01;;;;;;;9.43;3.43;;;3.90;99.90;;;;;;4916962;29;20561;-60
2022/03/19 04:46:30;;;;;;;9.77;4.20;;;4.00;99.90;;;;;;4916620;29;20550;-60
2022/03/19 04:48:58;;;;;;;11.63;4.33;;;4.20;99.90;;;;;;4927109;29;20487;-60
2022/03/19 04:51:32;;;;;;;10.43;3.70;;;4.10;99.90;;;;;;4935471;29;20542;-60
2022/03/19 04:54:02;;;;;;;11.90;3.40;;;3.90;99.90;;;;;;4924862;29;20477;-61
2022/03/19 04:56:31;;;;;;;8.17;3.60;;;3.80;99.90;;;;;;4916506;29;20475;-60
2022/03/19 04:59:02;;;;;;;12.33;3.93;;;3.90;99.90;;;;;;4916526;29;20913;-60
2022/03/19 05:01:31;;;;;;;11.37;4.10;;;4.10;99.90;;;;;;4916378;29;20563;-60
2022/03/19 05:04:01;;;;;;;9.70;3.27;;;4.00;99.90;;;;;;4927135;29;20490;-60
2022/03/19 05:06:29;;;;;;;10.33;3.27;;;3.90;99.90;;;;;;4935245;29;20486;-60
2022/03/19 05:11:41;;;;;;;12.73;3.57;;;4.10;99.90;;;;;;4894930;29;20542;-60
2022/03/19 05:14:11;;;;;;;11.17;4.10;;;3.90;99.90;;;;;;4916352;29;20876;-60
2022/03/19 05:16:39;;;;;;;10.03;4.17;;;3.80;99.90;;;;;;4916060;29;20487;-60
2022/03/19 05:19:07;;;;;;;14.57;4.10;;;3.70;99.90;;;;;;4927600;29;20462;-60
2022/03/19 05:21:35;;;;;;;14.80;3.73;;;3.70;99.90;;;;;;4934807;29;20497;-60
2022/03/19 05:24:04;;;;;;;10.07;3.60;;;3.90;99.90;;;;;;4923890;29;20482;-60
2022/03/19 05:26:32;;;;;;;8.03;4.07;;;3.90;99.90;;;;;;4915923;29;20492;-60
2022/03/19 05:29:02;;;;;;;8.23;3.60;;;3.70;99.90;;;;;;4915747;29;20488;-60
2022/03/19 05:31:34;;;;;;;9.63;3.63;;;3.70;99.90;;;;;;4915590;29;20538;-60
2022/03/19 05:36:48;;;;;;;7.40;3.00;;;3.90;99.90;;;;;;4915545;29;20506;-60
2022/03/19 05:39:17;;;;;;;16.00;5.37;;;4.00;99.90;;;;;;4915616;29;20504;-60
2022/03/19 05:41:45;;;;;;;15.70;5.50;;;4.00;99.90;;;;;;4916303;29;21021;-60
2022/03/19 05:44:14;;;;;;;12.50;5.27;;;4.10;99.90;;;;;;4915934;29;20917;-60
2022/03/19 05:46:42;;;;;;;12.13;4.97;;;4.00;99.90;;;;;;4914777;29;20483;-60
2022/03/19 05:49:11;;;;;;;10.40;3.97;;;3.80;99.90;;;;;;4927660;29;20862;-60
2022/03/19 05:51:39;;;;;;;9.10;4.03;;;3.80;99.90;;;;;;4934515;29;20548;-60
2022/03/19 05:54:07;;;;;;;8.20;3.87;;;4.00;99.90;;;;;;4934534;29;20483;-60
2022/03/19 05:56:36;;;;;;;11.63;3.97;;;4.10;99.90;;;;;;4934354;29;20538;-60
2022/03/19 05:59:04;;;;;;;9.83;3.90;;;4.10;99.90;;;;;;4934426;29;20823;-60
2022/03/19 06:01:35;;;;;;;9.23;3.70;;;4.10;99.90;;;;;;4934426;29;20480;-60
2022/03/19 06:04:03;;;;;;;13.30;4.73;;;4.10;99.90;;;;;;4934266;29;20492;-60
2022/03/19 06:06:33;;;;;;;14.70;4.53;;;4.10;99.90;;;;;;4934116;29;20523;-60
2022/03/19 06:09:01;;;;;;;9.57;4.00;;;4.20;99.90;;;;;;4919881;29;20933;-60
2022/03/19 06:11:29;;;;;;;10.93;3.80;;;4.30;99.90;;;;;;4915360;29;20500;-60
2022/03/19 06:13:58;;;;;;;10.63;4.10;;;4.20;99.90;;;;;;4914916;29;20503;-60
2022/03/19 06:16:27;;;;;;;9.90;3.37;;;4.10;99.90;;;;;;4927267;29;20511;-59
2022/03/19 06:18:56;;;;;;;12.23;4.37;;;4.30;99.90;;;;;;4920667;29;20480;-60
2022/03/19 06:21:25;;;;;;;7.20;3.97;;;4.40;99.90;;;;;;4926047;29;20486;-58
2022/03/19 06:23:54;;;;;;;12.07;4.10;;;4.30;99.90;;;;;;4928819;29;20574;-59
2022/03/19 06:26:23;;;;;;;13.27;4.27;;;4.20;99.90;;;;;;4925966;29;20489;-60
2022/03/19 06:28:52;;;;;;;6.83;3.50;;;4.20;99.90;;;;;;4925738;29;21069;-60
2022/03/19 06:31:21;;;;;;;9.77;3.60;;;4.20;99.90;;;;;;4925943;29;20545;-60
2022/03/19 06:33:49;;;;;;;11.27;4.43;;;4.20;99.90;;;;;;4929056;29;20527;-60
2022/03/19 06:39:05;;;;;;;10.00;4.40;;;4.40;99.90;;;;;;4926370;29;20495;-60
2022/03/19 06:41:35;;;;;;;10.73;3.87;;;4.60;99.90;;;;;;4922319;29;20487;-60
2022/03/19 06:44:05;;;;;;;12.57;3.87;;;4.60;99.90;;;;;;4920959;29;21031;-60
2022/03/19 06:46:33;;;;;;;15.53;4.90;;;4.80;99.90;;;;;;4924825;29;20477;-60
2022/03/19 06:49:01;;;;;;;12.40;5.30;;;4.90;99.90;;;;;;4925057;29;20487;-60
2022/03/19 06:51:31;;;;;;;16.00;4.50;;;5.00;99.90;;;;;;4925224;29;20505;-60
2022/03/19 06:53:59;;;;;;;9.60;4.40;;;5.10;99.90;;;;;;4928829;29;21074;-60
2022/03/19 06:56:27;;;;;;;15.47;4.77;;;5.30;99.90;;;;;;4925113;29;20480;-59
2022/03/19 06:58:57;;;;;;;15.53;4.33;;;5.40;99.90;;;;;;4928715;29;20483;-60
2022/03/19 07:01:25;;;;;;;10.50;3.77;;;5.60;99.90;;;;;;4916944;29;20536;-60
2022/03/19 07:03:54;;;;;;;9.77;3.37;;;5.70;99.90;;;;;;4914534;29;20241;-60
2022/03/19 07:06:22;;;;;;;10.20;3.67;;;5.80;99.90;;;;;;4922139;29;21073;-60
2022/03/19 07:09:12;;;;;;;13.37;4.63;;;5.70;99.90;;;;;;4921320;29;20892;-60
2022/03/19 07:11:40;;;;;;;11.57;3.63;;;5.90;99.90;;;;;;4925539;29;20699;-60
2022/03/19 07:14:09;;;;;;;10.07;4.13;;;6.20;99.90;;;;;;4925491;29;20313;-60
2022/03/19 07:16:42;;;;;;;13.40;3.97;;;6.30;99.90;;;;;;4914629;29;20243;-60
2022/03/19 07:19:10;;;;;;;12.37;3.57;;;6.40;99.90;;;;;;4926078;29;20483;-60
2022/03/19 07:21:38;;;;;;;9.33;3.43;;;6.40;99.90;;;;;;4916224;29;20231;-60
2022/03/19 07:24:07;;;;;;;11.53;4.00;;;6.50;99.90;;;;;;4918955;29;20255;-59
2022/03/19 07:26:37;;;;;;;13.77;3.83;;;6.60;99.90;;;;;;4921673;29;20246;-60
2022/03/19 07:29:06;;;;;;;12.43;3.93;;;6.70;99.90;;;;;;4920706;29;20390;-60
2022/03/19 07:31:34;;;;;;;9.77;3.90;;;6.80;99.90;;;;;;4924939;29;20239;-60
2022/03/19 07:34:03;;;;;;;8.67;3.50;;;7.00;99.90;;;;;;4928254;29;20327;-60
2022/03/19 07:36:32;;;;;;;12.43;3.80;;;7.10;99.90;;;;;;4924775;29;20231;-60
2022/03/19 07:39:00;;;;;;;9.83;3.00;;;7.20;99.90;;;;;;4928329;29;20247;-60
2022/03/19 07:41:45;;;;;;;12.47;3.53;;;7.50;99.90;;;;;;4924751;29;20749;-60
2022/03/19 07:44:15;;;;;;;9.07;3.17;;;7.50;99.90;;;;;;4924786;29;20708;-60
2022/03/19 07:46:43;;;;;;;9.93;3.20;;;7.50;99.90;;;;;;4925129;29;20246;-60
2022/03/19 07:49:12;;;;;;;10.23;3.53;;;7.70;99.90;;;;;;4924866;29;20583;-60
2022/03/19 07:51:41;;;;;;;12.03;3.50;;;7.60;99.90;;;;;;4917754;29;20644;-60
2022/03/19 07:54:09;;;;;;;10.17;3.43;;;7.70;99.90;;;;;;4921506;29;20736;-59
2022/03/19 07:56:37;;;;;;;10.10;3.00;;;7.80;99.90;;;;;;4924807;29;20692;-60
2022/03/19 07:59:05;;;;;;;13.23;4.33;;;7.80;99.90;;;;;;4932537;29;20239;-60
2022/03/19 08:01:35;;;;;;;9.37;2.80;;;7.60;99.90;;;;;;4924680;29;20327;-60
2022/03/19 08:04:08;;;;;;;10.37;3.30;;;7.50;99.90;;;;;;4932514;29;20318;-60
2022/03/19 08:06:37;;;;;;;14.33;3.30;;;7.50;99.90;;;;;;4907876;29;20244;-60
2022/03/19 08:09:07;;;;;;;10.60;3.17;;;7.80;99.90;;;;;;4925165;29;20244;-60
2022/03/19 08:11:35;;;;;;;10.30;3.47;;;7.90;99.90;;;;;;4928197;29;20240;-59
2022/03/19 08:14:04;;;;;;;10.07;3.20;;;8.10;99.90;;;;;;4931695;29;20340;-60
2022/03/19 08:16:35;;;;;;;8.03;2.87;;;8.40;99.90;;;;;;4925194;29;20291;-60
2022/03/19 08:19:03;;;;;;;6.77;3.63;;;8.40;99.90;;;;;;4927129;29;20251;-60
2022/03/19 08:21:32;;;;;;;7.30;3.30;;;8.60;99.90;;;;;;4927665;29;20236;-60
2022/03/19 08:24:00;;;;;;;7.20;2.93;;;8.80;99.90;;;;;;4925037;29;20268;-60
2022/03/19 08:26:28;;;;;;;6.53;2.60;;;8.80;99.90;;;;;;4931880;29;20242;-60
2022/03/19 08:28:56;;;;;;;11.83;3.40;;;8.80;99.90;;;;;;4926938;29;20271;-60
2022/03/19 08:31:24;;;;;;;10.93;2.97;;;9.10;99.90;;;;;;4935952;29;20236;-60
2022/03/19 08:33:55;;;;;;;10.00;3.30;;;9.40;99.90;;;;;;4926286;29;20272;-60
2022/03/19 08:36:23;;;;;;;8.83;2.80;;;9.20;99.90;;;;;;4916996;29;20296;-60
2022/03/19 08:41:37;;;;;;;9.37;2.83;;;9.20;99.90;;;;;;4917082;29;20300;-60
2022/03/19 08:44:06;;;;;;;10.50;2.93;;;9.30;99.90;;;;;;4916876;29;20298;-60
2022/03/19 08:46:34;;;;;;;9.67;3.27;;;9.40;99.90;;;;;;4916638;29;20295;-60
2022/03/19 08:49:04;;;;;;;9.13;3.03;;;9.50;99.90;;;;;;4916868;29;20250;-59
2022/03/19 08:51:41;;;;;;;9.10;2.77;;;9.70;99.90;;;;;;4916502;29;20301;-59
2022/03/19 08:54:11;;;;;;;9.07;3.20;;;10.00;99.90;;;;;;4916396;29;20245;-60
2022/03/19 08:56:40;;;;;;;11.07;3.03;;;10.10;99.90;;;;;;4916494;29;20246;-60
2022/03/19 08:59:09;;;;;;;7.27;2.97;;;10.20;99.90;;;;;;4916584;29;20324;-60
2022/03/19 09:01:39;;;;;;;7.90;3.40;;;10.30;99.90;;;;;;4916356;29;20242;-60
2022/03/19 09:04:09;;;;;;;12.57;2.90;;;10.30;99.90;;;;;;4925842;29;20331;-60
2022/03/19 09:06:37;;;;;;;10.60;2.70;;;10.60;99.90;;;;;;4927410;29;20251;-60
2022/03/19 09:09:05;;;;;;;5.43;2.40;;;10.70;99.90;;;;;;4931140;29;20251;-60
2022/03/19 09:11:35;;;;;;;9.03;2.70;;;10.70;99.90;;;;;;4924018;29;20256;-60
2022/03/19 09:14:04;;;;;;;7.67;2.53;;;10.70;99.90;;;;;;4922714;29;20333;-60
2022/03/19 09:16:34;;;;;;;9.80;2.70;;;10.90;99.90;;;;;;4927141;29;20259;-60
2022/03/19 09:19:03;;;;;;;6.43;2.67;;;11.20;99.90;;;;;;4935008;29;20255;-60
2022/03/19 09:21:34;;;;;;;11.23;3.00;;;11.20;99.90;;;;;;4926601;29;20321;-60
2022/03/19 09:24:04;;;;;;;8.97;2.73;;;11.50;99.90;;;;;;4915259;29;20241;-60
2022/03/19 09:26:32;;;;;;;8.97;2.83;;;11.60;99.90;;;;;;4923873;29;20267;-59
2022/03/19 09:29:00;;;;;;;5.23;2.40;;;11.80;99.90;;;;;;4926290;29;20244;-59
2022/03/19 09:31:28;;;;;;;8.17;2.83;;;11.80;99.90;;;;;;4926924;29;20614;-60
2022/03/19 09:33:56;;;;;;;9.67;2.60;;;11.80;99.90;;;;;;4933476;29;20303;-60
2022/03/19 09:36:25;;;;;;;7.33;2.27;;;12.00;99.90;;;;;;4926697;29;20247;-59
2022/03/19 09:38:55;;;;;;;6.07;2.13;;;12.30;99.90;;;;;;4934640;29;20244;-59
2022/03/19 09:41:23;;;;;;;4.70;2.20;;;12.20;99.90;;;;;;4926844;29;20240;-60
2022/03/19 09:43:51;;;;;;;9.67;3.03;;;12.20;99.90;;;;;;4930174;29;20263;-60
2022/03/19 09:46:19;;;;;;;7.97;2.07;;;12.40;99.90;;;;;;4926767;29;20245;-59
2022/03/19 09:48:48;;;;;;;7.20;2.60;;;12.60;99.90;;;;;;4926280;29;20250;-59
2022/03/19 09:51:18;;;;;;;6.07;2.03;;;12.80;99.90;;;;;;4927189;29;20599;-60
2022/03/19 09:53:48;;;;;;;5.30;2.33;;;12.70;99.90;;;;;;4925902;29;20242;-58
2022/03/19 09:56:33;;;;;;;6.07;2.03;;;12.50;99.90;;;;;;4923023;29;20323;-59
2022/03/19 09:59:02;;;;;;;8.50;2.43;;;12.40;99.90;;;;;;4922031;29;20253;-60
2022/03/19 10:01:31;;;;;;;6.33;2.00;;;12.40;99.90;;;;;;4926398;29;20718;-60
2022/03/19 10:04:07;;;;;;;6.83;1.90;;;12.60;99.90;;;;;;4924785;29;20254;-60
2022/03/19 10:09:33;;;;;;;6.50;2.10;;;13.00;99.90;;;;;;4927037;29;20247;-59
2022/03/19 10:12:03;;;;;;;7.60;2.20;;;13.00;99.90;;;;;;4929479;29;20249;-59
2022/03/19 10:14:33;;;;;;;6.63;2.03;;;13.00;99.90;;;;;;4931060;29;20265;-60
2022/03/19 10:17:02;;;;;;;6.47;1.93;;;12.60;99.90;;;;;;4929440;29;20243;-60
2022/03/19 10:19:31;;;;;;;5.43;1.93;;;12.50;99.90;;;;;;4931126;29;20371;-60
2022/03/19 10:22:08;;;;;;;5.40;2.00;;;12.60;99.90;;;;;;4924867;29;20281;-59
2022/03/19 10:24:37;;;;;;;4.03;1.57;;;12.80;99.90;;;;;;4921964;29;20726;-60
2022/03/19 10:27:18;;;;;;;3.93;1.50;;;13.00;99.90;;;;;;4919158;29;20251;-59
2022/03/19 10:29:47;;;;;;;4.37;1.60;;;12.80;99.90;;;;;;4925594;29;20286;-59
2022/03/19 10:32:15;;;;;;;4.33;1.70;;;12.70;99.90;;;;;;4930837;29;20245;-59
2022/03/19 10:34:44;;;;;;;4.90;1.77;;;12.80;99.90;;;;;;4924994;29;20745;-59
2022/03/19 10:37:34;;;;;;;5.63;1.70;;;12.70;99.90;;;;;;4930690;29;20250;-59
2022/03/19 10:40:03;;;;;;;7.80;1.80;;;12.90;99.90;;;;;;4922417;29;20250;-59
2022/03/19 10:42:39;;;;;;;7.10;1.43;;;13.20;99.90;;;;;;4932798;29;20677;-59
2022/03/19 10:45:09;;;;;;;5.90;1.77;;;13.10;99.90;;;;;;4918596;29;20247;-60
2022/03/19 10:47:42;;;;;;;3.67;1.40;;;13.20;99.90;;;;;;4930054;29;20246;-59
2022/03/19 10:50:11;;;;;;;5.93;1.73;;;12.80;99.90;;;;;;4922491;29;20232;-60
2022/03/19 10:52:40;;;;;;;4.87;1.43;;;12.90;99.90;;;;;;4895640;29;20595;-60
2022/03/19 10:55:10;;;;;;;4.60;1.50;;;13.10;99.90;;;;;;4922217;29;20247;-59
2022/03/19 10:57:39;;;;;;;3.47;1.30;;;12.90;99.90;;;;;;4895533;29;20571;-60
2022/03/19 11:00:08;;;;;;;2.73;1.40;;;13.00;99.90;;;;;;4918491;29;20250;-59
2022/03/19 11:02:41;;;;;;;5.53;1.93;;;13.00;99.90;;;;;;4933167;29;20725;-59
2022/03/19 11:05:11;;;;;;;4.57;1.70;;;13.00;99.90;;;;;;4919791;29;20243;-60
2022/03/19 11:07:43;;;;;;;4.77;1.67;;;12.80;99.90;;;;;;4898255;29;20251;-59
2022/03/19 11:10:12;;;;;;;6.90;1.97;;;12.90;99.90;;;;;;4922022;29;20326;-59
2022/03/19 11:12:50;;;;;;;2.70;1.33;;;13.10;99.90;;;;;;4932667;29;20245;-60
2022/03/19 11:15:19;;;;;;;3.17;1.33;;;13.30;99.90;;;;;;4922377;29;20250;-58
2022/03/19 11:17:51;;;;;;;5.40;1.37;;;13.20;99.90;;;;;;4931771;29;20246;-60
2022/03/19 11:20:19;;;;;;;2.37;1.10;;;13.20;99.90;;;;;;4922758;29;20254;-59
2022/03/19 11:22:50;;;;;;;3.10;1.30;;;13.20;99.90;;;;;;4926116;29;20242;-60
2022/03/19 11:25:27;;;;;;;4.53;1.37;;;13.60;99.90;;;;;;4922563;29;20322;-59
2022/03/19 11:28:00;;;;;;;1.97;1.10;;;13.90;99.90;;;;;;4927209;29;20327;-60
2022/03/19 11:30:30;;;;;;;3.43;1.20;;;13.90;99.90;;;;;;4923807;29;20236;-59
2022/03/19 11:33:07;;;;;;;3.30;1.50;;;13.40;99.90;;;;;;4932958;29;20274;-59
2022/03/19 11:35:38;;;;;;;2.70;0.70;;;13.20;99.90;;;;;;4924296;29;20234;-59
2022/03/19 11:38:11;;;;;;;3.03;0.90;;;13.20;99.90;;;;;;4929398;29;20298;-59
2022/03/19 11:40:45;;;;;;;2.23;1.00;;;13.10;99.90;;;;;;4921715;29;20307;-60
2022/03/19 11:43:30;;;;;;;2.07;0.90;;;13.20;99.90;;;;;;4915735;29;20800;-60
2022/03/19 11:46:00;;;;;;;3.77;1.20;;;13.20;99.90;;;;;;4928933;29;20238;-59
2022/03/19 11:48:44;;;;;;;1.80;1.10;;;13.00;99.90;;;;;;4928461;29;20256;-59
2022/03/19 11:51:20;;;;;;;2.50;1.27;;;13.00;99.90;;;;;;4922427;29;20294;-60
2022/03/19 11:53:53;;;;;;;1.50;0.90;;;13.00;99.90;;;;;;4917134;29;20238;-59
2022/03/19 11:56:22;;;;;;;2.73;1.03;;;13.00;99.90;;;;;;4928622;29;20321;-60
2022/03/19 11:58:52;;;;;;;2.50;1.40;;;13.00;99.90;;;;;;4931951;29;20253;-59
2022/03/19 12:01:49;;;;;;;2.70;1.37;;;12.80;99.90;;;;;;4928613;29;20262;-59
2022/03/19 12:04:21;;;;;;;2.07;1.03;;;12.50;99.90;;;;;;4934077;29;20238;-59
2022/03/19 12:06:53;;;;;;;2.03;1.00;;;12.60;99.90;;;;;;4930578;29;20789;-59
2022/03/19 12:09:32;;;;;;;2.27;0.90;;;12.30;99.90;;;;;;4926799;29;20238;-59
2022/03/19 12:12:22;;;;;;;1.57;0.97;;;12.10;99.90;;;;;;4931817;29;20254;-59
2022/03/19 12:14:51;;;;;;;1.67;1.00;;;11.80;99.90;;;;;;4926183;29;20723;-59
2022/03/19 12:17:21;;;;;;;3.43;1.10;;;11.90;99.90;;;;;;4924835;29;20242;-59
2022/03/19 12:19:54;;;;;;;0.97;0.80;;;12.00;99.90;;;;;;4924731;29;20648;-59
2022/03/19 12:22:34;;;;;;;2.10;1.10;;;12.10;99.90;;;;;;4934141;29;20253;-59
2022/03/19 12:25:12;;;;;;;3.60;1.20;;;12.10;99.90;;;;;;4929378;29;20251;-60
2022/03/19 12:27:41;;;;;;;1.50;1.03;;;12.10;99.90;;;;;;4932175;29;20274;-59
2022/03/19 12:30:11;;;;;;;1.47;0.90;;;12.00;99.90;;;;;;4928702;29;20246;-59
2022/03/19 12:32:49;;;;;;;2.13;1.03;;;12.20;99.90;;;;;;4898056;29;20275;-60
2022/03/19 12:35:18;;;;;;;1.90;1.10;;;12.10;99.90;;;;;;4923683;29;20250;-59
2022/03/19 12:37:52;;;;;;;1.90;0.90;;;12.10;99.90;;;;;;4936109;29;20242;-59
2022/03/19 12:40:22;;;;;;;2.03;1.13;;;12.20;99.90;;;;;;4927711;29;20247;-58
2022/03/19 12:42:55;;;;;;;2.03;1.30;;;12.10;99.90;;;;;;4934275;29;20242;-59
2022/03/19 12:45:38;;;;;;;2.77;1.10;;;12.00;99.90;;;;;;4926241;29;20248;-59
2022/03/19 12:48:12;;;;;;;2.23;1.20;;;11.80;99.90;;;;;;4931939;29;20252;-59
2022/03/19 12:50:49;;;;;;;3.13;1.07;;;11.70;99.90;;;;;;4917987;29;20606;-59
2022/03/19 12:53:17;;;;;;;1.90;1.10;;;11.70;99.90;;;;;;4916997;29;20243;-60
2022/03/19 12:55:45;;;;;;;2.03;1.20;;;11.90;99.90;;;;;;4927435;29;20328;-59
2022/03/19 12:58:14;;;;;;;2.47;1.10;;;11.80;99.90;;;;;;4935662;29;20241;-59
2022/03/19 13:00:55;;;;;;;2.37;1.27;;;11.70;99.90;;;;;;4927658;29;20231;-59
2022/03/19 13:03:31;;;;;;;4.57;1.30;;;11.60;99.90;;;;;;4933831;29;20727;-59
2022/03/19 13:05:59;;;;;;;2.03;1.10;;;11.70;99.90;;;;;;4927699;29;20275;-59
2022/03/19 13:08:27;;;;;;;2.73;1.30;;;11.60;99.90;;;;;;4931026;29;20246;-59
2022/03/19 13:10:55;;;;;;;4.10;1.40;;;11.60;99.90;;;;;;4927601;29;20250;-59
2022/03/19 13:13:23;;;;;;;3.90;1.43;;;11.60;99.90;;;;;;4935140;29;20718;-59
2022/03/19 13:15:53;;;;;;;2.10;1.20;;;11.60;99.90;;;;;;4922275;29;20243;-59
2022/03/19 13:18:30;;;;;;;2.70;1.37;;;11.70;99.90;;;;;;4921870;29;20657;-59